Time;durP1;ratioP1;P1;durP2;ratioP2;P2;SDS_P1;SDS_P2;PMS_P1;PMS_P2;Temp;Humidity;BMP_temperature;BMP_pressure;BME280_temperature;BME280_humidity;BME280_pressure;Samples;Min_cycle;Max_cycle;Signal;HPM_P1;HPM_P2
2022/04/22 00:01:12;;;;;;;3.08;1.90;;;16.80;57.80;;;;;;4810200;29;20051;-73
2022/04/22 00:03:38;;;;;;;3.28;2.10;;;16.80;57.90;;;;;;4810695;29;20370;-74
2022/04/22 00:06:04;;;;;;;4.45;1.90;;;16.80;58.00;;;;;;4810755;29;20175;-73
2022/04/22 00:08:30;;;;;;;3.22;2.42;;;16.80;58.00;;;;;;4810471;29;20426;-74
2022/04/22 00:13:40;;;;;;;4.72;2.22;;;16.80;57.90;;;;;;4810312;29;20098;-73
2022/04/22 00:16:06;;;;;;;4.85;2.22;;;16.80;58.00;;;;;;4810335;29;20093;-75
2022/04/22 00:18:33;;;;;;;3.72;2.20;;;16.80;58.00;;;;;;4809866;29;20059;-74
2022/04/22 00:20:59;;;;;;;3.50;2.08;;;16.80;58.00;;;;;;4810915;29;20065;-74
2022/04/22 00:23:26;;;;;;;3.22;2.45;;;16.70;58.00;;;;;;4810110;29;20459;-74
2022/04/22 00:25:53;;;;;;;4.35;2.30;;;16.80;58.00;;;;;;4809914;29;20137;-74
2022/04/22 00:28:19;;;;;;;3.33;2.25;;;16.80;58.00;;;;;;4824787;29;20332;-73
2022/04/22 00:30:45;;;;;;;3.10;2.20;;;16.70;58.00;;;;;;4810176;29;20051;-75
2022/04/22 00:33:11;;;;;;;4.07;2.45;;;16.70;58.00;;;;;;4809653;29;20141;-75
2022/04/22 00:35:37;;;;;;;4.25;2.15;;;16.70;58.00;;;;;;4810242;29;20078;-75
2022/04/22 00:38:03;;;;;;;6.47;2.75;;;16.70;58.00;;;;;;4794387;29;20115;-73
2022/04/22 00:40:28;;;;;;;5.15;2.50;;;16.70;58.00;;;;;;4809837;29;20058;-75
2022/04/22 00:42:54;;;;;;;8.85;3.22;;;16.70;58.10;;;;;;4810296;29;20046;-75
2022/04/22 00:45:20;;;;;;;4.03;2.38;;;16.70;58.10;;;;;;4794644;29;20117;-75
2022/04/22 00:47:47;;;;;;;7.18;2.50;;;16.70;58.30;;;;;;4810018;29;20054;-74
2022/04/22 00:50:13;;;;;;;5.40;2.60;;;16.60;58.30;;;;;;4810018;29;20055;-74
2022/04/22 00:52:39;;;;;;;4.80;2.25;;;16.70;58.40;;;;;;4809484;29;20123;-74
2022/04/22 00:55:06;;;;;;;9.70;3.00;;;16.60;58.40;;;;;;4793645;29;20057;-73
2022/04/22 00:57:32;;;;;;;3.70;2.47;;;16.60;58.50;;;;;;4809879;29;20051;-74
2022/04/22 00:59:59;;;;;;;6.45;2.38;;;16.60;58.60;;;;;;4809051;29;20130;-74
2022/04/22 01:02:25;;;;;;;5.05;2.38;;;16.60;58.60;;;;;;4809692;29;20123;-74
2022/04/22 01:10:20;;;;;;;6.43;3.17;;;16.50;58.40;;;;;;4809314;29;20059;-75
2022/04/22 01:12:46;;;;;;;3.95;2.90;;;16.50;58.30;;;;;;4809363;29;20108;-73
2022/04/22 01:15:12;;;;;;;4.32;2.53;;;16.50;58.30;;;;;;4809196;29;20065;-74
2022/04/22 01:17:39;;;;;;;5.03;2.95;;;16.50;58.50;;;;;;4809102;29;20058;-73
2022/04/22 01:20:05;;;;;;;5.28;2.60;;;16.50;59.30;;;;;;4809450;29;20061;-74
2022/04/22 01:22:31;;;;;;;6.13;2.75;;;16.40;58.70;;;;;;4809292;29;20063;-73
2022/04/22 01:24:59;;;;;;;6.75;3.22;;;16.40;58.70;;;;;;4809268;29;20051;-73
2022/04/22 01:27:31;;;;;;;4.65;3.28;;;16.40;58.60;;;;;;4809104;29;20058;-74
2022/04/22 01:30:01;;;;;;;4.35;2.72;;;16.40;58.60;;;;;;4808685;29;20054;-73
2022/04/22 01:32:27;;;;;;;4.97;2.80;;;16.40;58.70;;;;;;4808876;29;20053;-74
2022/04/22 01:34:54;;;;;;;3.42;2.13;;;16.40;58.80;;;;;;4809425;29;20054;-75
2022/04/22 01:37:19;;;;;;;3.40;2.13;;;16.40;58.80;;;;;;4809168;29;20089;-74
2022/04/22 01:39:45;;;;;;;3.28;2.42;;;16.40;58.80;;;;;;4809085;29;20086;-74
2022/04/22 01:42:11;;;;;;;5.30;2.78;;;16.40;58.80;;;;;;4808944;29;20174;-73
2022/04/22 01:44:37;;;;;;;6.07;2.67;;;16.40;58.70;;;;;;4809122;29;20043;-74
2022/04/22 01:47:06;;;;;;;6.28;2.33;;;16.50;58.70;;;;;;4808681;29;20145;-74
2022/04/22 01:49:32;;;;;;;3.65;2.30;;;16.40;58.70;;;;;;4808253;29;20059;-75
2022/04/22 01:51:58;;;;;;;6.70;2.22;;;16.50;58.70;;;;;;4808240;29;20207;-73
2022/04/22 01:54:24;;;;;;;4.38;2.60;;;16.50;58.70;;;;;;4808640;29;20463;-73
2022/04/22 01:56:50;;;;;;;5.40;2.25;;;16.40;58.70;;;;;;4808749;29;20086;-73
2022/04/22 01:59:16;;;;;;;2.92;2.22;;;16.50;58.70;;;;;;4808609;29;20061;-74
2022/04/22 02:01:42;;;;;;;4.47;2.85;;;16.50;58.70;;;;;;4808164;29;20050;-74
2022/04/22 02:04:07;;;;;;;6.05;2.40;;;16.40;58.60;;;;;;4808297;29;20470;-73
2022/04/22 02:06:33;;;;;;;5.20;2.95;;;16.40;58.70;;;;;;4808998;29;20086;-73
2022/04/22 02:08:59;;;;;;;6.75;3.00;;;16.40;58.70;;;;;;4809222;29;20130;-72
2022/04/22 02:11:24;;;;;;;5.47;2.50;;;16.40;58.50;;;;;;4808629;29;20059;-72
2022/04/22 02:13:50;;;;;;;6.03;3.22;;;16.40;58.60;;;;;;4808906;29;20051;-73
2022/04/22 02:16:15;;;;;;;4.13;2.97;;;16.40;58.60;;;;;;4808002;29;20062;-72
2022/04/22 02:18:42;;;;;;;6.00;2.80;;;16.30;58.60;;;;;;4808453;29;20054;-73
2022/04/22 02:21:10;;;;;;;5.40;3.03;;;16.40;58.70;;;;;;4808576;29;20091;-74
2022/04/22 02:23:36;;;;;;;4.70;3.10;;;16.30;58.60;;;;;;4808427;29;20047;-72
2022/04/22 02:26:04;;;;;;;3.80;2.97;;;16.40;58.70;;;;;;4808285;29;20051;-73
2022/04/22 02:28:32;;;;;;;6.07;3.05;;;16.30;58.60;;;;;;4807998;29;20055;-73
2022/04/22 02:31:06;;;;;;;6.97;3.10;;;16.30;58.60;;;;;;4792343;29;20059;-73
2022/04/22 02:33:37;;;;;;;3.78;2.70;;;16.30;58.60;;;;;;4807367;29;20050;-73
2022/04/22 02:36:04;;;;;;;4.20;2.80;;;16.30;58.60;;;;;;4808001;29;20059;-74
2022/04/22 02:38:30;;;;;;;4.47;2.58;;;16.20;58.60;;;;;;4808218;29;20090;-74
2022/04/22 02:46:27;;;;;;;5.00;2.63;;;16.30;58.60;;;;;;4808224;29;20145;-73
2022/04/22 02:49:00;;;;;;;5.35;3.05;;;16.20;58.70;;;;;;4808182;29;20178;-74
2022/04/22 02:51:27;;;;;;;3.92;2.40;;;16.20;58.70;;;;;;4808552;29;20051;-73
2022/04/22 02:53:53;;;;;;;5.65;2.92;;;16.20;58.70;;;;;;4807850;29;20426;-74
2022/04/22 02:56:20;;;;;;;4.20;2.85;;;16.20;58.40;;;;;;4808066;29;20058;-74
2022/04/22 02:58:46;;;;;;;5.07;2.75;;;16.10;58.50;;;;;;4807990;29;20053;-73
2022/04/22 03:01:14;;;;;;;3.88;2.65;;;16.10;58.50;;;;;;4794359;29;20134;-74
2022/04/22 03:03:44;;;;;;;4.30;2.38;;;16.10;58.50;;;;;;4797060;29;20054;-73
2022/04/22 03:06:10;;;;;;;4.95;2.83;;;16.10;58.50;;;;;;4811444;29;20061;-73
2022/04/22 03:08:35;;;;;;;4.00;2.40;;;16.10;58.50;;;;;;4811555;29;20443;-73
2022/04/22 03:11:02;;;;;;;5.10;2.72;;;16.00;58.40;;;;;;4811403;29;20057;-73
2022/04/22 03:13:28;;;;;;;7.05;2.90;;;16.00;58.40;;;;;;4810301;29;20046;-73
2022/04/22 03:15:54;;;;;;;3.47;2.67;;;16.00;58.30;;;;;;4795644;29;20141;-74
2022/04/22 03:18:20;;;;;;;4.18;2.53;;;16.00;58.40;;;;;;4810725;29;20490;-74
2022/04/22 03:20:46;;;;;;;5.68;2.72;;;16.00;58.40;;;;;;4811461;29;20097;-73
2022/04/22 03:23:12;;;;;;;6.07;2.58;;;16.00;58.40;;;;;;4811274;29;20138;-73
2022/04/22 03:25:37;;;;;;;4.43;2.42;;;16.00;58.20;;;;;;4811786;29;20051;-73
2022/04/22 03:28:05;;;;;;;4.80;2.47;;;16.00;58.20;;;;;;4811319;29;20098;-73
2022/04/22 03:30:34;;;;;;;4.60;2.72;;;16.00;58.30;;;;;;4811201;29;20091;-74
2022/04/22 03:33:01;;;;;;;3.25;2.50;;;16.00;58.40;;;;;;4810383;29;20387;-75
2022/04/22 03:35:27;;;;;;;4.88;2.45;;;15.90;58.30;;;;;;4810951;29;20054;-74
2022/04/22 03:37:53;;;;;;;4.35;2.33;;;15.90;58.30;;;;;;4810767;29;20057;-74
2022/04/22 03:40:19;;;;;;;5.43;2.55;;;15.90;58.40;;;;;;4811119;29;20438;-74
2022/04/22 03:42:44;;;;;;;4.90;2.53;;;15.90;58.40;;;;;;4810804;29;20125;-73
2022/04/22 03:45:11;;;;;;;5.22;2.90;;;15.90;58.40;;;;;;4810451;29;20367;-74
2022/04/22 03:47:38;;;;;;;4.97;2.38;;;15.90;58.30;;;;;;4810171;29;20051;-74
2022/04/22 03:50:04;;;;;;;3.85;2.08;;;15.90;58.30;;;;;;4810497;29;20063;-74
2022/04/22 03:52:30;;;;;;;4.60;2.10;;;15.90;58.40;;;;;;4810742;29;20051;-74
2022/04/22 03:54:56;;;;;;;4.88;2.47;;;15.80;58.30;;;;;;4810746;29;20127;-74
2022/04/22 04:00:06;;;;;;;2.75;1.98;;;15.80;58.30;;;;;;4810481;29;20055;-73
2022/04/22 04:02:33;;;;;;;4.50;2.28;;;15.80;58.40;;;;;;4810205;29;20397;-73
2022/04/22 04:04:59;;;;;;;3.53;2.13;;;15.80;58.40;;;;;;4810484;29;20047;-74
2022/04/22 04:07:25;;;;;;;4.03;2.17;;;15.80;58.50;;;;;;4810503;29;20363;-73
2022/04/22 04:18:14;;;;;;;5.90;2.80;;;15.80;59.00;;;;;;4810278;29;20482;-74
2022/04/22 04:23:23;;;;;;;;;;;15.70;58.30;;;;;;4811054;29;20051;-74
2022/04/22 04:25:50;;;;;;;4.15;2.17;;;15.70;58.10;;;;;;4810403;29;20260;-74
2022/04/22 04:28:17;;;;;;;4.70;2.72;;;15.70;58.30;;;;;;4810142;29;20377;-74
2022/04/22 04:30:44;;;;;;;4.68;2.50;;;15.70;58.30;;;;;;4809482;29;20367;-74
2022/04/22 04:33:10;;;;;;;6.95;2.45;;;15.70;58.30;;;;;;4824152;29;20047;-74
2022/04/22 04:35:37;;;;;;;3.58;2.05;;;15.70;58.30;;;;;;4809931;29;20512;-73
2022/04/22 04:38:03;;;;;;;3.70;2.10;;;15.60;58.20;;;;;;4810580;29;20057;-74
2022/04/22 04:40:28;;;;;;;3.90;2.17;;;15.60;58.20;;;;;;4809776;29;20059;-74
2022/04/22 04:42:54;;;;;;;3.80;1.73;;;15.60;58.10;;;;;;4809874;29;20047;-73
2022/04/22 04:45:20;;;;;;;3.80;2.28;;;15.60;58.20;;;;;;4809894;29;20403;-73
2022/04/22 04:47:46;;;;;;;3.05;1.83;;;15.60;58.20;;;;;;4810018;29;20374;-73
2022/04/22 04:50:12;;;;;;;4.07;2.33;;;15.60;58.20;;;;;;4809618;29;20057;-73
2022/04/22 04:52:39;;;;;;;3.15;1.90;;;15.60;58.20;;;;;;4810056;29;20047;-74
2022/04/22 04:55:09;;;;;;;5.13;2.42;;;15.60;58.20;;;;;;4794002;29;20055;-73
2022/04/22 04:57:35;;;;;;;2.97;2.20;;;15.50;57.90;;;;;;4809654;29;20451;-73
2022/04/22 05:00:05;;;;;;;8.35;3.00;;;15.50;58.00;;;;;;4809608;29;20062;-73
2022/04/22 05:02:32;;;;;;;5.10;2.08;;;15.50;58.10;;;;;;4809316;29;20113;-73
2022/04/22 05:04:58;;;;;;;5.60;2.03;;;15.50;58.10;;;;;;4824282;29;20065;-74
2022/04/22 05:07:23;;;;;;;3.78;1.80;;;15.50;58.20;;;;;;4809672;29;20424;-73
2022/04/22 05:09:49;;;;;;;3.97;1.75;;;15.60;58.20;;;;;;4809603;29;20591;-73
2022/04/22 05:12:15;;;;;;;4.25;1.80;;;15.60;58.20;;;;;;4809943;29;20416;-73
2022/04/22 05:14:41;;;;;;;5.45;2.10;;;15.60;58.20;;;;;;4809555;29;20082;-73
2022/04/22 05:17:06;;;;;;;4.22;2.08;;;15.60;58.20;;;;;;4809906;29;20147;-73
2022/04/22 05:19:33;;;;;;;3.47;1.92;;;15.60;58.10;;;;;;4809195;29;20466;-72
2022/04/22 05:21:59;;;;;;;3.88;1.45;;;15.60;58.20;;;;;;4809169;29;20051;-73
2022/04/22 05:24:25;;;;;;;2.35;1.77;;;15.70;58.30;;;;;;4808444;29;20054;-72
2022/04/22 05:26:50;;;;;;;2.60;1.10;;;15.70;58.20;;;;;;4809477;29;20058;-72
2022/04/22 05:34:45;;;;;;;4.15;1.55;;;16.00;57.80;;;;;;4809286;29;20050;-75
2022/04/22 05:37:10;;;;;;;4.15;1.35;;;16.00;57.80;;;;;;4807034;29;20058;-75
2022/04/22 05:39:36;;;;;;;10.98;1.85;;;16.10;57.80;;;;;;4808836;29;20105;-75
2022/04/22 05:42:02;;;;;;;4.90;1.33;;;16.10;58.10;;;;;;4817277;29;20373;-74
2022/04/22 05:44:28;;;;;;;6.30;1.40;;;16.10;58.20;;;;;;4826640;29;20087;-73
2022/04/22 05:46:54;;;;;;;6.07;1.80;;;16.20;58.20;;;;;;4825744;29;20050;-78
2022/04/22 05:49:20;;;;;;;10.65;2.58;;;16.30;59.50;;;;;;4844548;29;20110;-73
2022/04/22 05:51:46;;;;;;;12.68;2.40;;;16.50;60.50;;;;;;4859526;29;20058;-73
2022/04/22 05:54:12;;;;;;;8.32;1.92;;;16.60;62.30;;;;;;4844176;29;20068;-75
2022/04/22 05:56:37;;;;;;;9.23;1.60;;;16.70;62.30;;;;;;4830878;29;20447;-75
2022/04/22 05:59:03;;;;;;;6.80;1.75;;;16.80;61.50;;;;;;4826660;29;20050;-74
2022/04/22 06:01:29;;;;;;;7.57;1.85;;;16.80;61.20;;;;;;4826156;29;20065;-74
2022/04/22 06:03:55;;;;;;;6.60;1.40;;;16.80;60.40;;;;;;4827029;29;20050;-76
2022/04/22 06:06:21;;;;;;;7.75;1.77;;;16.80;60.70;;;;;;4826968;29;20320;-75
2022/04/22 06:11:32;;;;;;;4.53;1.20;;;16.90;60.00;;;;;;4826287;29;20050;-74
2022/04/22 06:13:58;;;;;;;5.28;1.40;;;16.90;59.70;;;;;;4826557;29;20069;-74
2022/04/22 06:16:23;;;;;;;6.03;1.73;;;16.90;59.40;;;;;;4827118;29;20059;-74
2022/04/22 06:18:49;;;;;;;3.60;1.30;;;16.90;59.60;;;;;;4826399;29;20054;-74
2022/04/22 06:21:15;;;;;;;4.28;1.30;;;17.00;59.00;;;;;;4826463;29;20051;-74
2022/04/22 06:23:41;;;;;;;6.82;1.70;;;16.90;58.90;;;;;;4825864;29;20073;-73
2022/04/22 06:26:06;;;;;;;5.60;1.70;;;17.20;60.50;;;;;;4826221;29;20061;-74
2022/04/22 06:28:33;;;;;;;7.28;1.52;;;16.90;58.20;;;;;;4826520;29;20150;-74
2022/04/22 06:31:00;;;;;;;7.10;1.70;;;17.10;61.30;;;;;;4826311;29;20058;-74
2022/04/22 06:33:26;;;;;;;12.18;1.85;;;17.40;61.30;;;;;;4825904;29;20058;-78
2022/04/22 06:35:52;;;;;;;5.70;1.17;;;17.60;60.80;;;;;;4810432;29;20431;-77
2022/04/22 06:38:18;;;;;;;7.45;1.40;;;17.90;60.40;;;;;;4826618;29;20087;-75
2022/04/22 06:46:16;;;;;;;9.38;1.60;;;18.50;60.40;;;;;;4816715;29;20492;-76
2022/04/22 06:48:43;;;;;;;12.75;1.40;;;18.60;60.50;;;;;;4808170;29;20064;-73
2022/04/22 06:51:10;;;;;;;9.32;1.60;;;18.60;60.60;;;;;;4807824;29;20157;-73
2022/04/22 06:53:36;;;;;;;8.02;1.73;;;18.70;61.20;;;;;;4806857;29;20494;-72
2022/04/22 06:56:05;;;;;;;4.82;1.40;;;18.70;60.40;;;;;;4807417;29;20059;-73
2022/04/22 06:58:33;;;;;;;7.75;1.48;;;18.70;59.70;;;;;;4808245;29;20063;-73
2022/04/22 07:00:59;;;;;;;6.75;1.73;;;18.60;59.20;;;;;;4808168;29;20054;-75
2022/04/22 07:03:25;;;;;;;7.50;1.42;;;18.60;59.20;;;;;;4807675;29;20465;-76
2022/04/22 07:05:52;;;;;;;7.65;1.45;;;18.30;56.80;;;;;;4808425;29;20051;-74
2022/04/22 07:08:19;;;;;;;8.43;1.27;;;18.20;60.70;;;;;;4807592;29;20047;-72
2022/04/22 07:10:47;;;;;;;5.18;1.15;;;18.20;62.50;;;;;;4807962;29;20146;-72
2022/04/22 07:13:17;;;;;;;8.45;1.70;;;18.20;63.00;;;;;;4807172;29;20519;-71
2022/04/22 07:15:44;;;;;;;5.43;1.40;;;18.20;62.90;;;;;;4807984;29;20077;-72
2022/04/22 07:18:10;;;;;;;8.45;1.52;;;18.20;63.50;;;;;;4807946;29;20055;-72
2022/04/22 07:20:37;;;;;;;9.48;1.27;;;18.30;63.50;;;;;;4808180;29;20054;-72
2022/04/22 07:23:03;;;;;;;8.18;0.95;;;18.30;63.80;;;;;;4807473;29;20055;-72
2022/04/22 07:25:29;;;;;;;13.48;1.77;;;18.30;63.50;;;;;;4791700;29;20054;-73
2022/04/22 07:27:56;;;;;;;6.38;1.42;;;18.20;63.40;;;;;;4806980;29;20050;-74
2022/04/22 07:30:23;;;;;;;23.45;2.15;;;18.20;62.80;;;;;;4807546;29;20164;-76
2022/04/22 07:32:49;;;;;;;10.02;1.50;;;18.20;62.50;;;;;;4807285;29;20057;-78
2022/04/22 07:35:19;;;;;;;13.13;1.70;;;18.20;59.80;;;;;;4807918;29;20051;-77
2022/04/22 07:37:47;;;;;;;12.70;1.73;;;18.10;60.70;;;;;;4805053;29;20055;-74
2022/04/22 07:40:14;;;;;;;7.45;1.83;;;18.10;60.90;;;;;;4807537;29;20054;-74
2022/04/22 07:48:19;;;;;;;6.95;1.58;;;18.10;62.20;;;;;;4811316;29;20340;-74
2022/04/22 07:50:47;;;;;;;14.35;2.13;;;18.10;62.40;;;;;;4811224;29;20367;-74
2022/04/22 07:53:18;;;;;;;7.75;2.13;;;18.10;62.50;;;;;;4810337;29;20107;-75
2022/04/22 07:55:44;;;;;;;13.38;1.83;;;18.10;62.00;;;;;;4810209;29;20235;-75
2022/04/22 07:58:10;;;;;;;7.93;1.58;;;18.10;61.60;;;;;;4810029;29;20463;-74
2022/04/22 08:00:43;;;;;;;9.73;1.58;;;18.10;61.50;;;;;;4795054;29;20083;-72
2022/04/22 08:03:09;;;;;;;7.85;1.55;;;18.10;60.80;;;;;;4810470;29;20053;-73
2022/04/22 08:05:35;;;;;;;12.00;1.60;;;18.10;63.20;;;;;;4808745;29;20146;-72
2022/04/22 08:08:01;;;;;;;13.32;1.98;;;18.20;64.10;;;;;;4810338;29;20055;-73
2022/04/22 08:10:27;;;;;;;13.95;1.88;;;18.20;64.40;;;;;;4810815;29;20123;-73
2022/04/22 08:12:53;;;;;;;11.15;1.55;;;18.20;65.10;;;;;;4806581;29;20058;-71
2022/04/22 08:15:19;;;;;;;19.17;1.88;;;18.30;65.40;;;;;;4806954;29;20098;-75
2022/04/22 08:17:48;;;;;;;7.20;1.48;;;18.30;66.00;;;;;;4810253;29;20055;-76
2022/04/22 08:20:14;;;;;;;10.32;2.00;;;18.30;66.50;;;;;;4809219;29;20096;-74
2022/04/22 08:22:40;;;;;;;12.82;1.52;;;18.30;65.90;;;;;;4809040;29;20411;-74
2022/04/22 08:25:06;;;;;;;11.52;2.40;;;18.30;64.80;;;;;;4809850;29;20051;-76
2022/04/22 08:27:32;;;;;;;10.70;2.25;;;18.30;63.40;;;;;;4810084;29;20062;-74
2022/04/22 08:29:59;;;;;;;10.25;1.67;;;18.30;63.20;;;;;;4810349;29;20111;-75
2022/04/22 08:32:25;;;;;;;7.70;1.83;;;18.20;62.90;;;;;;4809882;29;20375;-78
2022/04/22 08:34:51;;;;;;;6.85;1.42;;;18.20;61.60;;;;;;4807293;29;20139;-76
2022/04/22 08:37:18;;;;;;;6.13;1.70;;;18.20;60.50;;;;;;4809737;29;20086;-76
2022/04/22 08:39:45;;;;;;;7.95;1.52;;;18.10;60.30;;;;;;4810175;29;20352;-77
2022/04/22 08:42:15;;;;;;;6.85;1.73;;;18.20;60.30;;;;;;4809755;29;20199;-76
2022/04/22 08:44:41;;;;;;;12.90;1.90;;;18.20;60.00;;;;;;4808787;29;20074;-75
2022/04/22 08:50:02;;;;;;;7.40;2.05;;;18.20;59.60;;;;;;4827523;29;20100;-74
2022/04/22 08:52:31;;;;;;;;;;;18.20;59.70;;;;;;4827687;29;20083;-75
2022/04/22 08:54:58;;;;;;;9.68;1.92;;;18.20;58.70;;;;;;4827693;29;19932;-76
2022/04/22 08:57:25;;;;;;;5.30;1.40;;;18.20;59.10;;;;;;4827998;29;20054;-73
2022/04/22 08:59:50;;;;;;;6.35;1.77;;;18.20;58.30;;;;;;4811843;29;20065;-75
2022/04/22 09:02:20;;;;;;;4.80;1.20;;;18.20;58.00;;;;;;4827037;29;20050;-76
2022/04/22 09:04:47;;;;;;;2.60;1.20;;;18.20;58.20;;;;;;4826921;29;20050;-75
2022/04/22 09:07:13;;;;;;;5.80;1.55;;;18.20;58.00;;;;;;4827352;29;20137;-75
2022/04/22 09:09:49;;;;;;;9.65;1.73;;;18.20;57.90;;;;;;4826854;29;20060;-75
2022/04/22 09:12:18;;;;;;;10.88;1.88;;;18.30;57.70;;;;;;4827013;29;20096;-73
2022/04/22 09:14:51;;;;;;;8.70;1.40;;;18.20;57.70;;;;;;4841991;29;20141;-75
2022/04/22 09:17:31;;;;;;;19.48;2.10;;;18.30;57.80;;;;;;4827189;29;20052;-77
2022/04/22 09:19:59;;;;;;;17.23;2.70;;;18.30;58.40;;;;;;4827418;29;20054;-71
2022/04/22 09:22:26;;;;;;;22.95;2.85;;;18.20;58.60;;;;;;4826692;29;20046;-74
2022/04/22 09:24:58;;;;;;;23.88;2.90;;;18.30;59.90;;;;;;4825859;29;20050;-74
2022/04/22 09:27:35;;;;;;;17.58;2.33;;;18.40;59.20;;;;;;4827254;29;20423;-77
2022/04/22 09:30:07;;;;;;;11.70;2.33;;;18.40;58.60;;;;;;4826936;29;20057;-75
2022/04/22 09:32:34;;;;;;;18.15;2.60;;;18.40;59.40;;;;;;4827163;29;20054;-74
2022/04/22 09:35:23;;;;;;;28.80;3.28;;;18.40;61.70;;;;;;4827427;29;20058;-76
2022/04/22 09:43:42;;;;;;;8.63;1.80;;;18.60;60.00;;;;;;4841283;29;20058;-76
2022/04/22 09:46:27;;;;;;;7.05;1.52;;;18.50;57.20;;;;;;4835112;29;20072;-74
2022/04/22 09:48:56;;;;;;;4.65;1.33;;;18.40;56.20;;;;;;4844847;29;20061;-76
2022/04/22 09:51:24;;;;;;;4.93;1.20;;;18.40;56.20;;;;;;4844966;29;20061;-76
2022/04/22 09:54:05;;;;;;;8.98;1.63;;;18.40;56.90;;;;;;4817269;29;20076;-77
2022/04/22 09:56:32;;;;;;;9.68;2.05;;;18.40;56.30;;;;;;4826756;29;20074;-76
2022/04/22 09:58:58;;;;;;;5.28;1.55;;;18.40;57.30;;;;;;4826945;29;20082;-76
2022/04/22 10:01:25;;;;;;;6.57;1.40;;;18.40;57.90;;;;;;4828522;29;20524;-76
2022/04/22 10:03:51;;;;;;;5.90;1.75;;;18.40;56.50;;;;;;4845000;29;20420;-76
2022/04/22 10:06:18;;;;;;;5.45;1.60;;;18.30;57.50;;;;;;4844977;29;20089;-76
2022/04/22 10:08:46;;;;;;;6.97;2.00;;;18.10;56.60;;;;;;4844628;29;20050;-77
2022/04/22 10:11:15;;;;;;;6.50;1.92;;;17.80;56.80;;;;;;4844259;29;20436;-77
2022/04/22 10:13:44;;;;;;;19.70;3.05;;;17.70;57.30;;;;;;4844582;29;20046;-76
2022/04/22 10:16:11;;;;;;;7.45;2.22;;;17.60;57.90;;;;;;4845153;29;20394;-76
2022/04/22 10:18:42;;;;;;;7.03;1.85;;;17.50;58.00;;;;;;4844941;29;20066;-77
2022/04/22 10:21:08;;;;;;;5.32;2.05;;;17.30;57.80;;;;;;4844645;29;20073;-76
2022/04/22 10:23:35;;;;;;;14.55;2.15;;;17.30;58.30;;;;;;4837935;29;20047;-75
2022/04/22 10:26:02;;;;;;;8.25;1.45;;;17.30;59.10;;;;;;4826349;29;20046;-75
2022/04/22 10:28:30;;;;;;;10.82;2.30;;;17.40;59.20;;;;;;4842331;29;20046;-74
2022/04/22 10:31:00;;;;;;;11.15;1.58;;;17.40;59.30;;;;;;4844398;29;20102;-75
2022/04/22 10:33:27;;;;;;;8.43;1.98;;;17.50;59.40;;;;;;4844492;29;20046;-73
2022/04/22 10:36:02;;;;;;;11.02;1.63;;;17.40;59.70;;;;;;4844812;29;20046;-72
2022/04/22 10:38:38;;;;;;;7.13;1.70;;;17.40;59.90;;;;;;4844812;29;20073;-73
2022/04/22 10:41:13;;;;;;;7.70;2.00;;;17.40;60.10;;;;;;4844334;29;20058;-73
2022/04/22 10:43:40;;;;;;;4.00;1.67;;;17.40;60.50;;;;;;4845091;29;20054;-73
2022/04/22 10:49:14;;;;;;;6.53;1.60;;;17.40;60.50;;;;;;4843972;29;20366;-72
2022/04/22 10:52:02;;;;;;;6.13;1.45;;;17.40;60.90;;;;;;4844118;29;20469;-72
2022/04/22 10:54:52;;;;;;;7.53;1.80;;;17.40;60.90;;;;;;4831823;29;20123;-73
2022/04/22 10:57:25;;;;;;;8.20;1.85;;;17.40;61.10;;;;;;4826502;29;20050;-73
2022/04/22 11:00:11;;;;;;;5.95;1.50;;;17.40;61.00;;;;;;4826599;29;20153;-72
2022/04/22 11:02:42;;;;;;;4.85;1.45;;;17.40;60.90;;;;;;4826215;29;20050;-74
2022/04/22 11:05:19;;;;;;;4.57;1.30;;;17.40;60.90;;;;;;4826245;29;20526;-72
2022/04/22 11:07:53;;;;;;;3.08;1.38;;;17.40;60.90;;;;;;4824954;29;20410;-73
2022/04/22 11:10:22;;;;;;;6.45;1.35;;;17.40;61.10;;;;;;4825889;29;20538;-73
2022/04/22 11:12:58;;;;;;;1.92;1.00;;;17.40;61.10;;;;;;4824908;29;20348;-72
2022/04/22 11:16:14;;;;;;;5.20;1.75;;;17.40;61.10;;;;;;4826164;29;20046;-73
2022/04/22 11:18:44;;;;;;;4.15;1.52;;;17.40;60.90;;;;;;4790905;29;20088;-72
2022/04/22 11:21:12;;;;;;;7.82;1.60;;;17.50;60.90;;;;;;4825070;29;20062;-73
2022/04/22 11:23:46;;;;;;;2.40;1.33;;;17.50;61.20;;;;;;4834836;29;20064;-73
2022/04/22 11:26:13;;;;;;;;;;;17.50;61.10;;;;;;4848357;29;20065;-74
2022/04/22 11:28:39;;;;;;;6.22;1.65;;;17.50;61.10;;;;;;4847458;29;19931;-73
2022/04/22 11:31:11;;;;;;;3.13;1.30;;;17.50;61.10;;;;;;4846824;29;20096;-74
2022/04/22 11:34:03;;;;;;;4.57;1.35;;;17.50;61.30;;;;;;4847458;29;20050;-74
2022/04/22 11:36:28;;;;;;;3.78;1.17;;;17.50;60.90;;;;;;4847699;29;20054;-73
2022/04/22 11:38:55;;;;;;;4.57;1.30;;;17.50;60.90;;;;;;4847639;29;20090;-73
2022/04/22 11:41:22;;;;;;;10.23;2.15;;;17.50;60.80;;;;;;4847370;29;20072;-75
2022/04/22 11:43:48;;;;;;;6.30;2.22;;;17.50;60.70;;;;;;4847843;29;20358;-73
2022/04/22 11:46:16;;;;;;;9.05;1.88;;;17.60;60.50;;;;;;4846917;29;20061;-73
2022/04/22 11:48:50;;;;;;;4.60;1.60;;;17.60;60.50;;;;;;4843318;29;20049;-73
2022/04/22 12:10:30;;;;;;;19.27;3.05;;;18.00;60.20;;;;;;5066288;28;20053;-74
2022/04/22 12:13:01;;;;;;;12.80;2.00;;;18.00;60.00;;;;;;5055049;28;20045;-78
2022/04/22 12:15:30;;;;;;;12.88;2.75;;;18.00;59.80;;;;;;5051671;28;20044;-81
2022/04/22 12:17:57;;;;;;;18.27;2.88;;;18.00;59.50;;;;;;5051702;28;20055;-75
2022/04/22 12:20:25;;;;;;;11.88;2.90;;;18.00;59.90;;;;;;5050782;28;20047;-78
2022/04/22 12:22:53;;;;;;;14.57;2.80;;;18.00;59.80;;;;;;5050615;28;20045;-78
2022/04/22 12:25:21;;;;;;;11.57;3.20;;;18.00;59.60;;;;;;5051691;28;20049;-77
2022/04/22 12:28:11;;;;;;;13.45;2.50;;;18.00;59.50;;;;;;5034079;28;20111;-77
2022/04/22 12:30:46;;;;;;;10.02;2.28;;;17.90;59.80;;;;;;5051224;28;20049;-80
2022/04/22 12:33:20;;;;;;;7.80;2.40;;;17.90;60.50;;;;;;5051533;28;20102;-80
2022/04/22 12:35:46;;;;;;;8.52;2.13;;;17.90;61.40;;;;;;5050373;28;20053;-79
2022/04/22 12:38:17;;;;;;;8.50;2.28;;;18.00;61.50;;;;;;5056183;28;20377;-81
2022/04/22 12:40:48;;;;;;;11.35;2.90;;;18.00;61.40;;;;;;5033534;28;20045;-81
2022/04/22 12:43:28;;;;;;;6.80;2.17;;;18.00;61.60;;;;;;5059071;28;20048;-78
2022/04/22 12:52:14;;;;;;;8.60;2.80;;;18.00;60.20;;;;;;5069621;28;20053;-81
2022/04/22 12:54:42;;;;;;;9.25;2.35;;;18.00;61.20;;;;;;5047962;28;20069;-80
2022/04/22 12:57:22;;;;;;;12.05;2.15;;;18.00;60.90;;;;;;5050453;28;20072;-81
2022/04/22 13:00:34;;;;;;;;;;;;;;;;;;;;;
2022/04/22 13:03:45;;;;;;;10.23;2.38;;;18.10;62.90;;;;;;4954156;28;20249;-78
2022/04/22 13:06:55;;;;;;;21.88;4.70;;;18.10;63.60;;;;;;4984861;28;20041;-79
2022/04/22 13:09:22;;;;;;;13.02;3.55;;;18.20;65.30;;;;;;5028246;28;20080;-78
2022/04/22 13:11:51;;;;;;;14.82;5.72;;;18.20;65.50;;;;;;5000613;28;20049;-78
2022/04/22 13:14:17;;;;;;;23.27;4.97;;;18.20;67.00;;;;;;5017902;28;20046;-78
2022/04/22 13:16:43;;;;;;;10.23;4.10;;;18.30;67.80;;;;;;5002455;28;20073;-78
2022/04/22 13:19:11;;;;;;;12.85;3.65;;;18.30;67.60;;;;;;5017593;28;20076;-79
2022/04/22 13:21:47;;;;;;;15.13;4.13;;;18.30;67.20;;;;;;5000298;28;20455;-79
2022/04/22 13:24:15;;;;;;;13.93;3.20;;;18.30;67.50;;;;;;4999187;28;20103;-77
2022/04/22 13:26:41;;;;;;;9.02;3.08;;;18.30;67.40;;;;;;5000098;28;20125;-79
2022/04/22 13:29:07;;;;;;;12.02;2.85;;;18.30;63.70;;;;;;4983587;28;20124;-79
2022/04/22 13:31:35;;;;;;;10.40;3.30;;;18.30;62.60;;;;;;4984625;28;20192;-77
2022/04/22 13:34:03;;;;;;;11.77;2.80;;;18.20;62.20;;;;;;5000818;28;20261;-79
2022/04/22 13:36:31;;;;;;;13.07;2.60;;;18.20;63.50;;;;;;5014870;28;20044;-79
2022/04/22 13:38:57;;;;;;;8.80;2.83;;;18.30;63.60;;;;;;5019786;28;20100;-80
2022/04/22 13:41:29;;;;;;;14.52;3.40;;;18.30;63.70;;;;;;5019527;28;20398;-79
2022/04/22 13:43:54;;;;;;;7.85;3.67;;;18.30;64.00;;;;;;5036989;28;20357;-78
2022/04/22 13:54:34;;;;;;;6.45;2.75;;;18.40;62.70;;;;;;5000789;28;20458;-79
2022/04/22 13:57:01;;;;;;;6.60;3.42;;;18.40;62.30;;;;;;5019514;28;20037;-80
2022/04/22 13:59:26;;;;;;;10.85;3.45;;;18.40;62.10;;;;;;5019197;28;20540;-78
2022/04/22 14:01:53;;;;;;;7.63;2.95;;;18.40;61.90;;;;;;5054248;28;20072;-79
2022/04/22 14:04:18;;;;;;;5.63;3.25;;;18.40;61.80;;;;;;5073274;28;20202;-81
2022/04/22 14:06:44;;;;;;;8.18;3.50;;;18.40;61.80;;;;;;5054269;28;20464;-80
2022/04/22 14:09:10;;;;;;;6.30;3.08;;;18.40;61.60;;;;;;5035679;28;20033;-80
2022/04/22 14:11:38;;;;;;;9.00;2.72;;;18.40;61.50;;;;;;5036213;28;20041;-78
2022/04/22 14:14:04;;;;;;;12.07;3.53;;;18.40;61.40;;;;;;5022219;28;20033;-79
2022/04/22 14:16:30;;;;;;;15.10;4.22;;;18.40;61.20;;;;;;5054572;28;20051;-80
2022/04/22 14:18:58;;;;;;;8.50;3.13;;;18.40;60.70;;;;;;5055422;28;20452;-80
2022/04/22 14:21:32;;;;;;;9.85;3.55;;;18.40;61.20;;;;;;5039431;28;20361;-78
2022/04/22 14:24:00;;;;;;;7.70;3.03;;;18.40;61.70;;;;;;5056245;28;20450;-78